Terminal Aerodrome Forecast
Issued by NWS Cleveland, OH

Home | Current Version | Previous Version | Graphics & Text | Print | Product List | Glossary Off
Versions: 1 2 3 4 5 6 7 8 9 10 11 12 13 14 15 16 17

213
FTUS41 KCLE 061136
TAFTOL
TAF
KTOL 061136Z 0612/0712 08005KT P6SM OVC150
     FM061500 07008KT 5SM -RA OVC025
     FM061700 07010KT 2SM -RA BR OVC008
     FM062100 27012KT P6SM OVC025
     FM070500 26012KT P6SM SCT025 BKN200=

USA.gov is the U.S. government's official web portal to all federal, state and local government web resources and services.